Latest Weather Observations for Combienbar

IDV60801

Issued at 1:05 pm EST Thursday 31 July 2014 (issued every 30 minutes, with the page automatically refreshed every 10 minutes)

About weather observations | Map of weather stations | Latest weather observations for VIC | Other Formats
Station Details ID: 084143 Name: COMBIENBAR AWS Lat: -37.34 Lon: 149.02 Height: 640.0 m
Data from the previous 72 hours. | See also: Recent months at Combienbar
Date/Time
EST
Temp
°C
App
Temp
°C
Dew
Point
Rel
Hum
%
Delta-T
°C
Wind Press
QNH
hPa
Press
MSL
hPa
Rain
since 9 am
mm
Dir
 
Spd
km/h
Gust
km/h
Spd
kts
Gust
kts
31/01:00pm 16.0 8.2 -0.7 32 7.3 NW 30 63 16 34 997.0 997.2 0.0
31/12:30pm 15.9 8.2 0.1 34 7.1 NW 30 70 16 38 998.2 - 0.0
31/12:24pm 15.9 8.6 -0.3 33 7.1 NW 28 70 15 38 998.4 - 0.0
31/12:00pm 16.2 10.0 -0.5 32 7.4 NW 22 48 12 26 998.8 999.1 0.0
31/11:49am 16.2 8.8 -0.5 32 7.4 NW 28 63 15 34 999.0 - 0.0
31/11:30am 16.3 10.8 0.4 34 7.1 NW 19 37 10 20 999.7 - 0.0
31/11:00am 15.8 11.0 0.4 35 6.9 W 15 44 8 24 1000.7 1001.0 0.0
31/10:30am 15.6 11.7 1.4 38 6.4 NW 11 30 6 16 1001.4 - 0.0
31/10:00am 15.0 11.0 2.9 44 5.7 WNW 13 33 7 18 1001.9 1002.2 0.0
31/09:30am 14.5 10.0 2.1 43 5.7 NW 15 44 8 24 1002.3 - 0.0
31/09:00am 13.8 9.7 2.1 45 5.3 W 13 46 7 25 1003.0 1003.3 0.0
31/08:30am 12.9 9.6 2.7 50 4.7 W 9 28 5 15 1003.6 - 0.0
31/08:00am 12.8 9.5 2.6 50 4.7 WSW 9 22 5 12 1004.0 1004.4 0.0
31/07:30am 12.6 9.9 2.5 50 4.6 WSW 6 17 3 9 1004.4 - 0.0
31/07:00am 12.7 9.7 2.3 49 4.7 WNW 7 22 4 12 1004.6 1004.9 0.0
31/06:30am 12.4 8.7 2.3 50 4.5 W 11 30 6 16 1004.9 - 0.0
31/06:00am 12.8 8.3 2.1 48 4.8 W 15 50 8 27 1005.2 1005.5 0.0
31/05:30am 12.4 8.6 2.0 49 4.7 WSW 11 30 6 16 1005.4 - 0.0
31/05:00am 12.2 9.2 1.8 49 4.6 NW 7 24 4 13 1005.7 1006.1 0.0
31/04:30am 11.9 8.8 1.5 49 4.6 N 7 22 4 12 1006.2 - 0.0
31/04:00am 12.2 8.7 1.5 48 4.7 NW 9 19 5 10 1007.0 1007.4 0.0
31/03:30am 12.2 9.1 1.5 48 4.7 WNW 7 24 4 13 1007.5 - 0.0
31/03:00am 12.0 8.9 1.3 48 4.7 W 7 20 4 11 1008.0 1008.4 0.0
31/02:30am 12.4 9.5 1.4 47 4.9 NNW 6 13 3 7 1008.4 - 0.0
31/02:00am 11.9 9.4 1.5 49 4.6 NNW 4 9 2 5 1008.7 1009.1 0.0
31/01:30am 12.3 9.9 1.9 49 4.6 WNW 4 9 2 5 1009.1 - 0.0
31/01:00am 11.9 9.5 2.4 52 4.3 ESE 4 9 2 5 1009.1 1009.5 0.0
31/12:30am 12.3 9.4 2.7 52 4.4 WNW 7 20 4 11 1009.3 - 0.0
31/12:00am 12.2 9.4 3.2 54 4.1 W 7 20 4 11 1009.4 1009.9 0.0
 
Date/Time
EST
Temp
°C
App
Temp
°C
Dew
Point
Rel
Hum
%
Delta-T
°C
Wind Press
QNH
hPa
Press
MSL
hPa
Rain
since 9 am
mm
Dir
 
Spd
km/h
Gust
km/h
Spd
kts
Gust
kts
30/11:30pm 12.6 9.0 3.0 52 4.4 W 11 30 6 16 1009.8 - 0.0
30/11:00pm 12.1 9.3 3.3 55 4.1 W 7 35 4 19 1010.0 1010.4 0.0
30/10:30pm 12.1 9.9 3.3 55 4.0 NW 4 11 2 6 1009.9 - 0.0
30/10:00pm 12.4 9.7 3.6 55 4.1 W 7 24 4 13 1009.7 1010.1 0.0
30/09:30pm 11.8 9.7 3.8 58 3.7 W 4 17 2 9 1010.1 - 0.0
30/09:00pm 12.3 9.6 3.8 56 4.0 WNW 7 26 4 14 1010.4 1010.8 0.0
30/08:30pm 12.6 8.8 4.1 56 4.0 W 13 32 7 17 1010.4 - 0.0
30/08:00pm 12.5 9.1 4.0 56 4.0 W 11 26 6 14 1010.5 1010.9 0.0
30/07:30pm 12.9 8.4 4.1 55 4.1 W 17 41 9 22 1010.8 - 0.0
30/07:00pm 12.7 9.4 4.4 57 3.9 W 11 26 6 14 1010.9 1011.4 0.0
30/06:30pm 12.8 9.1 4.5 57 3.9 WSW 13 35 7 19 1010.8 - 0.0
30/06:00pm 12.9 9.6 4.8 58 3.9 W 11 24 6 13 1010.6 1011.1 0.0
30/05:30pm 12.9 10.7 5.1 59 3.7 NW 6 13 3 7 1010.7 - 0.0
30/05:00pm 13.4 10.9 4.8 56 4.1 NNW 7 19 4 10 1010.8 1011.3 0.0
30/04:30pm 13.8 11.3 4.7 54 4.4 WSW 7 22 4 12 1010.8 - 0.0
30/04:00pm 14.4 12.5 4.7 52 4.7 NNW 4 15 2 8 1010.7 1011.2 0.0
30/03:30pm 15.2 12.9 4.9 50 5.0 SW 6 24 3 13 1010.6 - 0.0
30/03:00pm 15.7 13.9 5.3 50 5.1 SSW 4 13 2 7 1010.7 1011.2 0.0
30/02:30pm 15.3 12.6 5.5 52 4.8 WSW 9 28 5 15 1010.8 - 0.0
30/02:00pm 15.2 12.8 5.1 51 4.9 W 7 17 4 9 1010.9 1011.4 0.0
30/01:30pm 16.0 13.8 5.3 49 5.3 W 6 15 3 8 1011.0 - 0.0
30/01:00pm 16.1 13.9 6.3 52 4.9 W 7 17 4 9 1011.2 1011.6 0.0
30/12:30pm 16.0 13.9 5.9 51 5.0 SW 6 20 3 11 1011.5 - 0.0
30/12:00pm 15.9 13.7 5.5 50 5.2 WSW 6 22 3 12 1011.7 1012.1 0.0
30/11:30am 15.6 12.6 6.1 53 4.8 W 11 24 6 13 1011.9 - 0.0
30/11:00am 15.4 13.2 6.2 54 4.6 W 7 20 4 11 1012.1 1012.6 0.0
30/10:30am 14.8 12.2 5.9 55 4.4 WNW 9 24 5 13 1012.2 - 0.0
30/10:00am 14.4 12.3 6.0 57 4.2 WNW 6 20 3 11 1012.5 1013.0 0.0
30/09:30am 14.4 12.5 6.5 59 4.0 NNW 6 15 3 8 1012.4 - 0.0
30/09:00am 12.7 10.3 5.4 61 3.5 NW 7 19 4 10 1012.7 1013.2 0.0
30/08:30am 12.5 10.1 5.2 61 3.5 W 7 19 4 10 1012.5 - 0.0
30/08:00am 12.1 10.2 5.0 62 3.4 W 4 9 2 5 1012.4 1012.9 0.0
30/07:30am 12.2 10.3 4.9 61 3.5 WNW 4 11 2 6 1012.3 - 0.0
30/07:00am 12.2 10.6 4.7 60 3.6 NNW 2 7 1 4 1012.0 1012.5 0.0
30/06:30am 12.3 10.8 4.8 60 3.6 WSW 2 9 1 5 1011.6 - 0.0
30/06:00am 12.6 10.6 4.6 58 3.8 WNW 4 15 2 8 1011.3 1011.7 0.0
30/05:30am 12.4 10.4 4.6 59 3.7 N 4 6 2 3 1010.9 - 0.0
30/05:00am 12.9 10.4 4.6 57 4.0 SW 7 20 4 11 1010.5 1010.9 0.0
30/04:30am 12.6 10.6 4.3 57 3.9 SSW 4 11 2 6 1010.4 - 0.0
30/04:00am 13.1 10.7 4.3 55 4.2 W 6 20 3 11 1009.7 1010.1 0.0
30/03:30am 12.5 10.1 4.2 57 3.9 SE 6 7 3 4 1009.6 - 0.0
30/03:00am 13.3 10.3 4.2 54 4.3 WSW 9 20 5 11 1009.8 1010.2 0.0
30/02:30am 13.1 9.8 4.3 55 4.2 SW 11 30 6 16 1009.3 - 0.0
30/02:00am 13.1 9.0 4.3 55 4.2 W 15 43 8 23 1009.0 1009.4 0.0
30/01:30am 12.7 9.3 4.2 56 4.0 WSW 11 41 6 22 1008.9 - 0.0
30/01:00am 12.4 9.4 4.1 57 3.9 WSW 9 26 5 14 1009.0 1009.4 0.0
30/12:30am 12.6 9.2 3.8 55 4.1 W 11 26 6 14 1009.3 - 0.0
30/12:00am 12.2 9.1 3.7 56 4.0 NW 9 26 5 14 1009.2 1009.7 0.0
 
Date/Time
EST
Temp
°C
App
Temp
°C
Dew
Point
Rel
Hum
%
Delta-T
°C
Wind Press
QNH
hPa
Press
MSL
hPa
Rain
since 9 am
mm
Dir
 
Spd
km/h
Gust
km/h
Spd
kts
Gust
kts
29/11:30pm 12.3 8.8 3.3 54 4.1 W 11 28 6 15 1009.1 - 0.0
29/11:00pm 12.8 7.5 3.2 52 4.4 W 20 46 11 25 1008.2 1008.6 0.0
29/10:30pm 12.8 6.8 3.2 52 4.4 WNW 24 65 13 35 1008.1 - 0.0
29/10:00pm 12.3 7.6 3.0 53 4.3 W 17 44 9 24 1009.0 1009.4 0.0
29/09:30pm 12.4 6.7 2.8 52 4.4 W 22 52 12 28 1008.9 - 0.0
29/09:00pm 12.5 7.3 2.7 51 4.5 W 19 46 10 25 1008.1 1008.5 0.0
29/08:30pm 12.3 8.0 3.0 53 4.2 WSW 15 37 8 20 1008.3 - 0.0
29/08:00pm 12.8 7.5 2.9 51 4.5 WNW 20 57 11 31 1008.0 1008.4 0.0
29/07:30pm 12.4 8.8 3.1 53 4.3 W 11 33 6 18 1008.3 - 0.0
29/07:00pm 12.2 9.6 3.2 54 4.1 N 6 17 3 9 1008.7 1009.1 0.0
29/06:30pm 12.2 9.4 2.9 53 4.2 W 7 20 4 11 1008.2 - 0.0
29/06:00pm 12.6 9.0 2.7 51 4.5 NW 11 30 6 16 1008.1 1008.5 0.0
29/05:30pm 12.0 9.7 2.7 53 4.2 S 4 15 2 8 1007.7 - 0.0
29/05:00pm 12.3 9.4 2.5 51 4.4 NW 7 26 4 14 1007.5 1007.9 0.0
29/04:30pm 12.6 9.4 3.0 52 4.4 NW 9 24 5 13 1007.7 - 0.0
29/04:00pm 13.1 10.1 1.8 46 5.1 W 7 20 4 11 1008.1 1008.5 0.0
29/03:30pm 13.4 9.5 1.4 44 5.3 NW 11 28 6 15 1007.2 - 0.0
29/03:00pm 14.6 10.3 1.2 40 6.0 NW 13 33 7 18 1007.3 1007.7 0.0
29/02:30pm 14.1 10.5 0.4 39 6.0 NNW 9 28 5 15 1008.0 - 0.0
29/02:00pm 14.4 11.2 -0.5 36 6.4 NNW 6 17 3 9 1008.3 1008.7 0.0
29/01:30pm 14.7 11.3 -0.6 35 6.6 WNW 7 20 4 11 1008.7 - 0.0
29/01:00pm 15.1 12.7 -0.2 35 6.7 SSW 2 17 1 9 1008.6 1009.0 0.0
29/12:30pm 14.9 10.1 -2.5 30 7.2 W 13 32 7 17 1007.7 - 0.0
29/12:00pm 14.9 10.7 -1.2 33 6.9 WNW 11 30 6 16 1008.4 1008.8 0.0
29/11:30am 15.2 10.7 -0.5 34 6.8 NW 13 33 7 18 1008.8 - 0.0
29/11:00am 14.9 11.8 1.1 39 6.2 W 7 28 4 15 1009.4 1009.9 0.0
29/10:30am 13.7 9.4 1.0 42 5.6 W 13 35 7 19 1010.2 - 0.0
29/10:00am 13.7 8.1 1.4 43 5.5 W 20 48 11 26 1009.2 1009.7 0.0
29/09:30am 13.4 7.8 1.4 44 5.3 W 20 61 11 33 1008.9 - 0.0
29/09:00am 12.9 7.3 1.0 44 5.2 W 20 59 11 32 1009.0 1009.4 0.0
29/08:30am 12.6 6.9 0.7 44 5.2 W 20 65 11 35 1009.1 - 0.0
29/08:00am 12.4 6.9 0.5 44 5.2 W 19 43 10 23 1009.0 1009.4 0.0
29/07:30am 12.2 6.7 0.6 45 5.0 W 19 44 10 24 1008.8 - 0.0
29/07:00am 12.3 5.9 0.7 45 5.1 W 24 48 13 26 1009.0 1009.4 0.0
29/06:30am 12.2 6.2 0.9 46 4.9 W 22 44 12 24 1009.0 - 0.0
29/06:00am 12.0 7.0 1.3 48 4.7 WNW 17 33 9 18 1009.3 1009.8 0.0
29/05:30am 11.9 8.0 1.3 48 4.6 WNW 11 32 6 17 1009.6 - 0.0
29/05:00am 11.5 7.7 1.5 50 4.4 NNW 11 32 6 17 1010.2 1010.6 0.0
29/04:30am 12.0 7.7 1.3 48 4.7 WNW 13 48 7 26 1010.4 - 0.0
29/04:00am 12.2 7.6 1.5 48 4.7 WNW 15 44 8 24 1010.5 1010.9 0.0
29/03:30am 11.9 7.3 1.5 49 4.6 W 15 26 8 14 1010.6 - 0.0
29/03:00am 12.1 7.5 1.4 48 4.7 WNW 15 30 8 16 1010.9 1011.4 0.0
29/02:30am 12.0 6.6 1.3 48 4.7 WNW 19 43 10 23 1011.0 - 0.0
29/02:00am 11.7 7.1 1.4 49 4.5 NW 15 33 8 18 1011.4 1011.8 0.0
29/01:30am 11.7 7.1 1.6 50 4.5 W 15 35 8 19 1011.6 - 0.0
29/01:00am 11.6 6.3 1.8 51 4.3 WNW 19 33 10 18 1011.7 1012.1 0.0
29/12:30am 11.4 6.1 1.9 52 4.2 W 19 41 10 22 1012.1 - 0.0
29/12:00am 11.4 6.4 1.6 51 4.3 W 17 39 9 21 1012.3 1012.8 0.0
 
Date/Time
EST
Temp
°C
App
Temp
°C
Dew
Point
Rel
Hum
%
Delta-T
°C
Wind Press
QNH
hPa
Press
MSL
hPa
Rain
since 9 am
mm
Dir
 
Spd
km/h
Gust
km/h
Spd
kts
Gust
kts
28/11:30pm 11.6 5.3 1.5 50 4.4 W 24 52 13 28 1012.4 - 0.0
28/11:00pm 11.4 6.1 1.6 51 4.3 WNW 19 35 10 19 1012.7 1013.2 0.0
28/10:30pm 11.3 6.3 1.5 51 4.3 W 17 37 9 20 1013.0 - 0.0
28/10:00pm 11.0 6.0 1.3 51 4.2 NW 17 46 9 25 1013.0 1013.4 0.0
28/09:30pm 11.2 5.8 1.5 51 4.2 WNW 19 43 10 23 1013.3 - 0.0
28/09:00pm 10.9 6.7 1.4 52 4.1 NW 13 35 7 19 1013.5 1014.0 0.0
28/08:30pm 10.9 5.5 1.4 52 4.1 NW 19 48 10 26 1013.5 - 0.0
28/08:00pm 10.8 6.9 1.4 52 4.1 NNW 11 28 6 15 1013.9 1014.4 0.0
28/07:30pm 11.0 5.4 1.3 51 4.2 NW 20 43 11 23 1014.0 - 0.0
28/07:00pm 10.7 6.5 1.5 53 4.0 WNW 13 32 7 17 1013.9 1014.4 0.0
28/06:30pm 10.7 5.3 1.5 53 4.0 NNW 19 35 10 19 1014.1 - 0.0
28/06:00pm 10.7 6.9 1.5 53 4.0 NNW 11 22 6 12 1014.3 1014.8 0.0
28/05:30pm 11.2 7.4 1.5 51 4.2 NW 11 26 6 14 1014.4 - 0.0
28/05:00pm 10.7 7.7 2.0 55 3.8 N 7 17 4 9 1014.4 1014.9 0.0
28/04:30pm 11.6 9.9 2.1 52 4.2 CALM 0 4 0 2 1014.9 - 0.0
28/04:00pm 12.6 10.2 1.9 48 4.8 NNW 4 11 2 6 1014.4 1014.9 0.0
28/03:30pm 13.8 11.4 2.4 46 5.2 NNW 4 9 2 5 1014.9 - 0.0
28/03:00pm 14.2 11.5 2.5 45 5.4 NNW 6 15 3 8 1014.8 1015.3 0.0
28/02:30pm 14.6 11.8 2.2 43 5.7 NNW 6 15 3 8 1015.0 - 0.0
28/02:00pm 14.3 10.1 1.6 42 5.7 NW 13 24 7 13 1015.1 1015.6 0.0
28/01:30pm 14.7 11.6 1.3 40 6.0 WNW 7 22 4 12 1015.2 - 0.0

Other Formats:

Comma delimited format used in spreadsheet applications
http://www.bom.gov.au/fwo/IDV60801/IDV60801.94914.axf

JavaScript Object Notation format (JSON) in row-major order
http://www.bom.gov.au/fwo/IDV60801/IDV60801.94914.json